»·PEaware :: N1BD KSLC-KRKS

N1BD :: KSLC-KRKS

FLIGHT INFORMATION

Flight Status: Arrived
Operator: Privately registered:
United States
More flights under this callsign
Pilot: Renato C. (3281)
Aircraft: CESSNA 550 CITATION 2/S2/BRAVO
(C550)
More flights by this aircraft type
Origin: KSLC Salt Lake City Intl
United States
Destination: KRKS Rock Springs-Sweetwater
United States
More flights between these airports :: More routes between these airports
Route: +SLC4 TCH V32 FBR V6 OCS
File this flight plan on PilotEdge
Remarks:
Altitude:
(Current/Filed)
14,000ft
Speed:
(Current/Filed)
310kts
Departed: 06-Jun-20 01:08 PM
Arrived: 06-Jun-20 01:46 PM
Distance/Time
Traveled:
335nm/0:37
Distance/Time
To Go:
Arrived

Flight Plot

Page will automatically refresh every two minutes.

Flight plan parsing failed; only flown route is shown


Map Options




Map Legend


Flown Route
Filed Route
Departure Airport
Arrival Airport
Navaid (VOR, NDB)
Fix

Horizontal Profiles

Position Reports

Time Latitude Longitude Heading Altitude Ground
Speed
06-Jun-20 12:50 40.775671 -111.959392 357 4224ft 0kts
06-Jun-20 12:51 40.775671 -111.959392 357 4224ft 0kts
06-Jun-20 12:52 40.775671 -111.959392 357 4224ft 0kts
06-Jun-20 12:53 40.775671 -111.959392 357 4224ft 0kts
06-Jun-20 12:54 40.775671 -111.959392 357 4224ft 0kts
06-Jun-20 12:54 40.775671 -111.959392 357 4224ft 0kts
06-Jun-20 12:56 40.775671 -111.959392 357 4224ft 0kts
06-Jun-20 12:57 40.775671 -111.959392 357 4224ft 0kts
06-Jun-20 12:57 40.775671 -111.959392 357 4224ft 0kts
06-Jun-20 12:59 40.775671 -111.959392 357 4224ft 0kts
06-Jun-20 13:00 40.775745 -111.959396 357 4224ft 4kts
06-Jun-20 13:00 40.776023 -111.959920 281 4224ft 0kts
06-Jun-20 13:01 40.776453 -111.960726 9 4224ft 11kts
06-Jun-20 13:02 40.779429 -111.960040 0 4224ft 16kts
06-Jun-20 13:03 40.784990 -111.960015 0 4221ft 18kts
06-Jun-20 13:04 40.789910 -111.960014 0 4221ft 21kts
06-Jun-20 13:05 40.796851 -111.960015 359 4221ft 23kts
06-Jun-20 13:06 40.797781 -111.962068 179 4221ft 31kts
06-Jun-20 13:07 40.768309 -111.968408 233 5224ft 166kts
06-Jun-20 13:08 40.794601 -112.032958 304 7577ft 231kts
06-Jun-20 13:09 40.840333 -112.097515 320 10154ft 252kts
06-Jun-20 13:10 40.903757 -112.061842 61 11709ft 310kts
06-Jun-20 13:11 40.945803 -111.954438 65 12895ft 334kts
06-Jun-20 13:12 40.981579 -111.842925 70 13917ft 352kts
06-Jun-20 13:13 41.014913 -111.718156 72 14881ft 356kts
06-Jun-20 13:14 41.047029 -111.593413 68 15904ft 358kts
06-Jun-20 13:15 41.086117 -111.470960 66 16779ft 361kts
06-Jun-20 13:16 41.122693 -111.346720 71 17109ft 373kts
06-Jun-20 13:17 41.157790 -111.217629 69 17171ft 369kts
06-Jun-20 13:18 41.194212 -111.089362 68 17357ft 372kts
06-Jun-20 13:19 41.230765 -110.959704 68 17113ft 377kts
06-Jun-20 13:20 41.266334 -110.832818 69 16981ft 360kts
06-Jun-20 13:21 41.300700 -110.708190 69 16982ft 360kts
06-Jun-20 13:22 41.340090 -110.585466 66 16978ft 358kts
06-Jun-20 13:23 41.369598 -110.462296 72 17001ft 358kts
06-Jun-20 13:24 41.394303 -110.333187 78 16999ft 361kts
06-Jun-20 13:25 41.413941 -110.201929 80 16999ft 361kts
06-Jun-20 13:26 41.434013 -110.071435 79 17015ft 359kts
06-Jun-20 13:27 41.454428 -109.940889 79 17016ft 359kts
06-Jun-20 13:28 41.474083 -109.814003 79 17001ft 359kts
06-Jun-20 13:29 41.494151 -109.683128 78 16998ft 358kts
06-Jun-20 13:30 41.513819 -109.553136 80 16999ft 356kts
06-Jun-20 13:31 41.529864 -109.423434 78 16999ft 355kts
06-Jun-20 13:32 41.549326 -109.294010 80 16997ft 355kts
06-Jun-20 13:33 41.568305 -109.164127 80 16997ft 357kts
06-Jun-20 13:34 41.587242 -109.035643 80 15890ft 343kts
06-Jun-20 13:35 41.604868 -108.914998 81 14156ft 331kts
06-Jun-20 13:36 41.600481 -108.803705 146 12671ft 279kts
06-Jun-20 13:37 41.577770 -108.720985 110 11369ft 243kts
06-Jun-20 13:38 41.542631 -108.704402 233 10069ft 176kts
06-Jun-20 13:39 41.542067 -108.771984 263 9404ft 193kts
06-Jun-20 13:40 41.555215 -108.848580 270 9317ft 211kts
06-Jun-20 13:41 41.569344 -108.911666 260 8678ft 123kts
06-Jun-20 13:42 41.575826 -108.958056 273 8120ft 134kts
06-Jun-20 13:43 41.583868 -109.006264 273 7376ft 135kts
06-Jun-20 13:44 41.592845 -109.054816 282 6756ft 114kts
06-Jun-20 13:45 41.596546 -109.072642 9 6735ft 8kts
06-Jun-20 13:46 41.596812 -109.070963 104 6737ft 16kts
06-Jun-20 13:47 41.596763 -109.067509 16 6740ft 11kts
06-Jun-20 13:48 41.598676 -109.065288 46 6740ft 10kts
06-Jun-20 13:49 41.599236 -109.064004 314 6739ft 0kts
06-Jun-20 13:50 41.599236 -109.064004 314 6739ft 0kts
06-Jun-20 13:51 41.599236 -109.064004 314 6739ft 0kts
06-Jun-20 13:52 41.599236 -109.064004 314 6739ft 0kts
06-Jun-20 13:53 41.599236 -109.064004 314 6739ft 0kts
06-Jun-20 13:54 41.599236 -109.064004 314 6739ft 0kts
06-Jun-20 13:55 39.570303 -104.848123 179 5889ft 0kts
06-Jun-20 13:56 39.570303 -104.848123 179 5889ft 0kts
06-Jun-20 13:57 39.570303 -104.848123 179 5889ft 0kts
06-Jun-20 13:58 39.570303 -104.848123 179 5889ft 0kts
06-Jun-20 13:59 39.570303 -104.848123 179 5889ft 0kts

Navigation Log

Ident Type
Flight plan parsing failed, navigation log unavailable